sensor_id;sensor_type;location;lat;lon;timestamp;temperature;humidity
30174;DHT22;16985;50.814;8.530;2023-05-02T00:53:49;14.80;99.90
30174;DHT22;16985;50.814;8.530;2023-05-02T00:58:43;11.30;99.90
30174;DHT22;16985;50.814;8.530;2023-05-02T01:40:02;10.90;99.90
30174;DHT22;16985;50.814;8.530;2023-05-02T01:42:31;10.90;99.90
30174;DHT22;16985;50.814;8.530;2023-05-02T01:44:59;10.80;99.90
30174;DHT22;16985;50.814;8.530;2023-05-02T01:47:29;10.80;99.90
30174;DHT22;16985;50.814;8.530;2023-05-02T01:52:24;10.80;99.90
30174;DHT22;16985;50.814;8.530;2023-05-02T02:02:24;10.40;99.90
30174;DHT22;16985;50.814;8.530;2023-05-02T02:04:56;10.40;99.90
30174;DHT22;16985;50.814;8.530;2023-05-02T02:12:27;10.30;99.90
30174;DHT22;16985;50.814;8.530;2023-05-02T02:25:09;10.10;99.90
30174;DHT22;16985;50.814;8.530;2023-05-02T02:37:32;9.90;99.90
30174;DHT22;16985;50.814;8.530;2023-05-02T02:43:11;9.70;99.90
30174;DHT22;16985;50.814;8.530;2023-05-02T02:48:39;9.70;99.90
30174;DHT22;16985;50.814;8.530;2023-05-02T02:51:13;9.60;99.90
30174;DHT22;16985;50.814;8.530;2023-05-02T02:53:59;9.60;99.90
30174;DHT22;16985;50.814;8.530;2023-05-02T02:56:38;9.70;99.90
30174;DHT22;16985;50.814;8.530;2023-05-02T02:59:13;9.50;99.90
30174;DHT22;16985;50.814;8.530;2023-05-02T03:02:06;9.60;99.90
30174;DHT22;16985;50.814;8.530;2023-05-02T03:04:36;9.50;99.90
30174;DHT22;16985;50.814;8.530;2023-05-02T03:07:08;9.40;99.90
30174;DHT22;16985;50.814;8.530;2023-05-02T04:14:25;9.00;99.90
30174;DHT22;16985;50.814;8.530;2023-05-02T04:19:47;8.90;99.90
30174;DHT22;16985;50.814;8.530;2023-05-02T06:18:19;10.40;99.90
30174;DHT22;16985;50.814;8.530;2023-05-02T06:45:08;10.30;99.90
30174;DHT22;16985;50.814;8.530;2023-05-02T07:07:05;11.20;99.90
30174;DHT22;16985;50.814;8.530;2023-05-02T07:11:57;11.10;99.90
30174;DHT22;16985;50.814;8.530;2023-05-02T07:29:00;11.60;99.90
30174;DHT22;16985;50.814;8.530;2023-05-02T07:41:12;11.80;99.90
30174;DHT22;16985;50.814;8.530;2023-05-02T07:51:05;12.00;99.90
30174;DHT22;16985;50.814;8.530;2023-05-02T08:05:44;11.20;99.90
30174;DHT22;16985;50.814;8.530;2023-05-02T08:08:10;12.00;99.90
30174;DHT22;16985;50.814;8.530;2023-05-02T08:23:02;10.80;99.90
30174;DHT22;16985;50.814;8.530;2023-05-02T08:40:10;12.50;99.90
30174;DHT22;16985;50.814;8.530;2023-05-02T08:42:40;12.60;99.90
30174;DHT22;16985;50.814;8.530;2023-05-02T08:45:12;12.70;99.90
30174;DHT22;16985;50.814;8.530;2023-05-02T08:47:42;12.80;99.90
30174;DHT22;16985;50.814;8.530;2023-05-02T08:50:09;12.90;99.90
30174;DHT22;16985;50.814;8.530;2023-05-02T08:52:36;12.90;99.90
30174;DHT22;16985;50.814;8.530;2023-05-02T08:55:04;13.00;99.90
30174;DHT22;16985;50.814;8.530;2023-05-02T08:57:31;13.10;99.90
30174;DHT22;16985;50.814;8.530;2023-05-02T08:59:57;13.20;99.90
30174;DHT22;16985;50.814;8.530;2023-05-02T09:05:41;13.40;99.90
30174;DHT22;16985;50.814;8.530;2023-05-02T09:08:07;13.50;99.90
30174;DHT22;16985;50.814;8.530;2023-05-02T09:10:34;13.60;99.90
30174;DHT22;16985;50.814;8.530;2023-05-02T09:18:36;13.60;99.10
30174;DHT22;16985;50.814;8.530;2023-05-02T09:21:11;13.60;98.40
30174;DHT22;16985;50.814;8.530;2023-05-02T09:23:46;13.60;98.00
30174;DHT22;16985;50.814;8.530;2023-05-02T09:26:27;13.70;98.20
30174;DHT22;16985;50.814;8.530;2023-05-02T09:28:56;13.60;98.40
30174;DHT22;16985;50.814;8.530;2023-05-02T09:31:24;13.80;99.40
30174;DHT22;16985;50.814;8.530;2023-05-02T09:33:52;13.80;99.80
30174;DHT22;16985;50.814;8.530;2023-05-02T09:36:19;13.90;98.90
30174;DHT22;16985;50.814;8.530;2023-05-02T09:38:48;14.10;98.80
30174;DHT22;16985;50.814;8.530;2023-05-02T09:41:15;14.20;98.00
30174;DHT22;16985;50.814;8.530;2023-05-02T09:43:54;14.30;97.30
30174;DHT22;16985;50.814;8.530;2023-05-02T09:46:23;14.50;96.00
30174;DHT22;16985;50.814;8.530;2023-05-02T09:48:56;14.60;94.90
30174;DHT22;16985;50.814;8.530;2023-05-02T09:51:24;14.70;94.30
30174;DHT22;16985;50.814;8.530;2023-05-02T09:53:50;14.70;94.10
30174;DHT22;16985;50.814;8.530;2023-05-02T09:56:17;14.80;93.60
30174;DHT22;16985;50.814;8.530;2023-05-02T09:58:43;14.80;93.50
30174;DHT22;16985;50.814;8.530;2023-05-02T10:01:16;14.80;93.10
30174;DHT22;16985;50.814;8.530;2023-05-02T10:03:47;14.80;93.20
30174;DHT22;16985;50.814;8.530;2023-05-02T10:06:21;14.80;92.60
30174;DHT22;16985;50.814;8.530;2023-05-02T10:08:47;14.80;92.70
30174;DHT22;16985;50.814;8.530;2023-05-02T10:11:14;14.90;92.90
30174;DHT22;16985;50.814;8.530;2023-05-02T10:13:40;15.00;92.70
30174;DHT22;16985;50.814;8.530;2023-05-02T10:16:10;14.90;92.30
30174;DHT22;16985;50.814;8.530;2023-05-02T10:19:17;15.00;92.20
30174;DHT22;16985;50.814;8.530;2023-05-02T10:21:54;15.10;92.20
30174;DHT22;16985;50.814;8.530;2023-05-02T10:24:20;15.30;91.80
30174;DHT22;16985;50.814;8.530;2023-05-02T10:26:47;15.40;91.00
30174;DHT22;16985;50.814;8.530;2023-05-02T10:29:13;15.40;90.50
30174;DHT22;16985;50.814;8.530;2023-05-02T10:31:40;15.50;90.10
30174;DHT22;16985;50.814;8.530;2023-05-02T10:34:10;15.70;89.50
30174;DHT22;16985;50.814;8.530;2023-05-02T10:36:36;15.70;88.00
30174;DHT22;16985;50.814;8.530;2023-05-02T10:39:02;15.80;86.90
30174;DHT22;16985;50.814;8.530;2023-05-02T10:41:30;15.80;86.00
30174;DHT22;16985;50.814;8.530;2023-05-02T10:43:58;15.80;85.10
30174;DHT22;16985;50.814;8.530;2023-05-02T10:46:36;15.80;84.90
30174;DHT22;16985;50.814;8.530;2023-05-02T10:49:07;15.80;84.70
30174;DHT22;16985;50.814;8.530;2023-05-02T10:51:35;15.80;84.00
30174;DHT22;16985;50.814;8.530;2023-05-02T10:54:21;15.90;84.30
30174;DHT22;16985;50.814;8.530;2023-05-02T10:57:03;15.90;83.10
30174;DHT22;16985;50.814;8.530;2023-05-02T10:59:41;15.90;82.50
30174;DHT22;16985;50.814;8.530;2023-05-02T11:05:02;16.00;81.70
30174;DHT22;16985;50.814;8.530;2023-05-02T11:07:30;16.00;81.70
30174;DHT22;16985;50.814;8.530;2023-05-02T11:18:01;16.40;80.90
30174;DHT22;16985;50.814;8.530;2023-05-02T11:20:43;16.50;80.90
30174;DHT22;16985;50.814;8.530;2023-05-02T11:25:49;16.80;80.10
30174;DHT22;16985;50.814;8.530;2023-05-02T11:31:05;17.20;80.50
30174;DHT22;16985;50.814;8.530;2023-05-02T11:33:32;17.40;79.90
30174;DHT22;16985;50.814;8.530;2023-05-02T11:35:58;17.40;79.10
30174;DHT22;16985;50.814;8.530;2023-05-02T11:38:25;17.40;77.40
30174;DHT22;16985;50.814;8.530;2023-05-02T11:40:55;17.50;77.20
30174;DHT22;16985;50.814;8.530;2023-05-02T11:43:26;17.60;76.80
30174;DHT22;16985;50.814;8.530;2023-05-02T11:45:54;17.80;77.10
30174;DHT22;16985;50.814;8.530;2023-05-02T11:48:21;17.90;75.70
30174;DHT22;16985;50.814;8.530;2023-05-02T11:50:50;17.90;74.50
30174;DHT22;16985;50.814;8.530;2023-05-02T11:53:28;18.00;74.60
30174;DHT22;16985;50.814;8.530;2023-05-02T11:55:55;18.00;74.50
30174;DHT22;16985;50.814;8.530;2023-05-02T11:58:25;18.20;74.90
30174;DHT22;16985;50.814;8.530;2023-05-02T12:00:57;18.30;75.10
30174;DHT22;16985;50.814;8.530;2023-05-02T12:03:27;18.30;72.90
30174;DHT22;16985;50.814;8.530;2023-05-02T12:05:55;18.30;72.50
30174;DHT22;16985;50.814;8.530;2023-05-02T12:08:44;18.30;72.00
30174;DHT22;16985;50.814;8.530;2023-05-02T12:11:14;18.50;72.80
30174;DHT22;16985;50.814;8.530;2023-05-02T12:13:45;18.50;72.70
30174;DHT22;16985;50.814;8.530;2023-05-02T12:16:16;18.60;70.20
30174;DHT22;16985;50.814;8.530;2023-05-02T12:18:42;18.70;70.00
30174;DHT22;16985;50.814;8.530;2023-05-02T12:21:08;18.70;69.50
30174;DHT22;16985;50.814;8.530;2023-05-02T12:23:34;18.60;69.90
30174;DHT22;16985;50.814;8.530;2023-05-02T12:26:24;18.50;69.40
30174;DHT22;16985;50.814;8.530;2023-05-02T12:28:54;18.40;69.40
30174;DHT22;16985;50.814;8.530;2023-05-02T12:31:20;18.10;69.40
30174;DHT22;16985;50.814;8.530;2023-05-02T12:33:47;18.10;70.50
30174;DHT22;16985;50.814;8.530;2023-05-02T12:36:14;18.10;71.10
30174;DHT22;16985;50.814;8.530;2023-05-02T12:38:47;18.20;71.30
30174;DHT22;16985;50.814;8.530;2023-05-02T12:41:15;18.10;71.70
30174;DHT22;16985;50.814;8.530;2023-05-02T12:43:48;18.00;72.20
30174;DHT22;16985;50.814;8.530;2023-05-02T12:46:15;18.10;72.00
30174;DHT22;16985;50.814;8.530;2023-05-02T12:48:41;18.00;71.80
30174;DHT22;16985;50.814;8.530;2023-05-02T12:51:22;17.90;71.80
30174;DHT22;16985;50.814;8.530;2023-05-02T12:53:49;17.70;72.10
30174;DHT22;16985;50.814;8.530;2023-05-02T12:56:14;17.60;72.50
30174;DHT22;16985;50.814;8.530;2023-05-02T12:58:46;17.40;72.30
30174;DHT22;16985;50.814;8.530;2023-05-02T13:01:14;17.30;72.50
30174;DHT22;16985;50.814;8.530;2023-05-02T13:03:40;17.10;72.90
30174;DHT22;16985;50.814;8.530;2023-05-02T13:06:23;16.90;73.20
30174;DHT22;16985;50.814;8.530;2023-05-02T13:08:48;16.80;73.40
30174;DHT22;16985;50.814;8.530;2023-05-02T13:11:14;16.70;73.80
30174;DHT22;16985;50.814;8.530;2023-05-02T13:13:40;16.60;74.00
30174;DHT22;16985;50.814;8.530;2023-05-02T13:16:06;16.50;74.50
30174;DHT22;16985;50.814;8.530;2023-05-02T13:18:32;16.60;74.90
30174;DHT22;16985;50.814;8.530;2023-05-02T13:20:58;16.40;74.80
30174;DHT22;16985;50.814;8.530;2023-05-02T13:23:24;16.60;75.20
30174;DHT22;16985;50.814;8.530;2023-05-02T13:25:49;16.60;75.10
30174;DHT22;16985;50.814;8.530;2023-05-02T13:28:15;16.70;74.70
30174;DHT22;16985;50.814;8.530;2023-05-02T13:30:41;16.80;74.00
30174;DHT22;16985;50.814;8.530;2023-05-02T13:33:07;16.80;73.80
30174;DHT22;16985;50.814;8.530;2023-05-02T13:35:33;16.80;73.40
30174;DHT22;16985;50.814;8.530;2023-05-02T13:37:58;16.80;73.40
30174;DHT22;16985;50.814;8.530;2023-05-02T13:40:24;16.80;73.40
30174;DHT22;16985;50.814;8.530;2023-05-02T13:42:50;16.90;73.60
30174;DHT22;16985;50.814;8.530;2023-05-02T13:45:16;16.90;73.10
30174;DHT22;16985;50.814;8.530;2023-05-02T13:47:42;16.80;72.50
30174;DHT22;16985;50.814;8.530;2023-05-02T13:50:08;16.80;72.20
30174;DHT22;16985;50.814;8.530;2023-05-02T13:52:33;16.80;72.70
30174;DHT22;16985;50.814;8.530;2023-05-02T13:54:59;16.90;72.80
30174;DHT22;16985;50.814;8.530;2023-05-02T13:57:25;16.80;72.60
30174;DHT22;16985;50.814;8.530;2023-05-02T13:59:51;16.80;72.70
30174;DHT22;16985;50.814;8.530;2023-05-02T14:02:17;16.70;73.10
30174;DHT22;16985;50.814;8.530;2023-05-02T14:04:43;16.60;73.40
30174;DHT22;16985;50.814;8.530;2023-05-02T14:07:09;16.50;73.00
30174;DHT22;16985;50.814;8.530;2023-05-02T14:09:35;16.30;72.90
30174;DHT22;16985;50.814;8.530;2023-05-02T14:12:01;16.20;73.60
30174;DHT22;16985;50.814;8.530;2023-05-02T14:14:27;16.20;74.30
30174;DHT22;16985;50.814;8.530;2023-05-02T14:16:53;16.30;74.50
30174;DHT22;16985;50.814;8.530;2023-05-02T14:19:18;16.40;74.50
30174;DHT22;16985;50.814;8.530;2023-05-02T14:21:44;16.50;73.90
30174;DHT22;16985;50.814;8.530;2023-05-02T14:24:10;16.60;73.70
30174;DHT22;16985;50.814;8.530;2023-05-02T14:26:37;16.70;73.80
30174;DHT22;16985;50.814;8.530;2023-05-02T14:29:03;16.80;73.80
30174;DHT22;16985;50.814;8.530;2023-05-02T14:31:28;16.90;72.40
30174;DHT22;16985;50.814;8.530;2023-05-02T14:33:55;17.00;71.80
30174;DHT22;16985;50.814;8.530;2023-05-02T14:36:21;17.00;71.00
30174;DHT22;16985;50.814;8.530;2023-05-02T14:38:46;16.90;70.40
30174;DHT22;16985;50.814;8.530;2023-05-02T14:41:12;16.80;70.40
30174;DHT22;16985;50.814;8.530;2023-05-02T14:43:38;16.80;70.50
30174;DHT22;16985;50.814;8.530;2023-05-02T14:46:04;16.70;70.20
30174;DHT22;16985;50.814;8.530;2023-05-02T14:48:30;16.70;70.20
30174;DHT22;16985;50.814;8.530;2023-05-02T14:50:55;16.70;70.20
30174;DHT22;16985;50.814;8.530;2023-05-02T14:53:23;16.70;70.20
30174;DHT22;16985;50.814;8.530;2023-05-02T14:55:49;16.60;70.20
30174;DHT22;16985;50.814;8.530;2023-05-02T14:58:14;16.60;70.10
30174;DHT22;16985;50.814;8.530;2023-05-02T15:00:45;16.60;70.00
30174;DHT22;16985;50.814;8.530;2023-05-02T15:03:11;16.60;70.10
30174;DHT22;16985;50.814;8.530;2023-05-02T15:05:37;16.50;70.80
30174;DHT22;16985;50.814;8.530;2023-05-02T15:08:04;16.40;69.80
30174;DHT22;16985;50.814;8.530;2023-05-02T15:10:30;16.20;69.60
30174;DHT22;16985;50.814;8.530;2023-05-02T15:12:58;16.20;70.50
30174;DHT22;16985;50.814;8.530;2023-05-02T15:15:25;16.20;70.60
30174;DHT22;16985;50.814;8.530;2023-05-02T15:17:50;16.20;70.40
30174;DHT22;16985;50.814;8.530;2023-05-02T15:20:17;16.20;70.80
30174;DHT22;16985;50.814;8.530;2023-05-02T15:22:43;16.20;70.30
30174;DHT22;16985;50.814;8.530;2023-05-02T15:25:09;16.10;70.30
30174;DHT22;16985;50.814;8.530;2023-05-02T15:27:34;16.00;70.20
30174;DHT22;16985;50.814;8.530;2023-05-02T15:30:00;15.90;70.50
30174;DHT22;16985;50.814;8.530;2023-05-02T15:32:27;15.80;70.40
30174;DHT22;16985;50.814;8.530;2023-05-02T15:34:54;15.70;70.30
30174;DHT22;16985;50.814;8.530;2023-05-02T15:37:19;15.70;70.50
30174;DHT22;16985;50.814;8.530;2023-05-02T15:39:45;15.50;70.60
30174;DHT22;16985;50.814;8.530;2023-05-02T15:42:11;15.40;70.50
30174;DHT22;16985;50.814;8.530;2023-05-02T15:44:37;15.20;70.60
30174;DHT22;16985;50.814;8.530;2023-05-02T15:47:04;15.10;70.90
30174;DHT22;16985;50.814;8.530;2023-05-02T15:49:30;15.10;70.90
30174;DHT22;16985;50.814;8.530;2023-05-02T15:52:01;15.00;71.00
30174;DHT22;16985;50.814;8.530;2023-05-02T15:54:28;15.00;71.30
30174;DHT22;16985;50.814;8.530;2023-05-02T15:56:54;15.00;70.70
30174;DHT22;16985;50.814;8.530;2023-05-02T15:59:20;15.00;70.50
30174;DHT22;16985;50.814;8.530;2023-05-02T16:01:45;15.00;70.30
30174;DHT22;16985;50.814;8.530;2023-05-02T16:04:11;15.10;70.30
30174;DHT22;16985;50.814;8.530;2023-05-02T16:06:51;15.10;69.60
30174;DHT22;16985;50.814;8.530;2023-05-02T16:09:17;15.10;69.10
30174;DHT22;16985;50.814;8.530;2023-05-02T16:11:43;15.00;69.20
30174;DHT22;16985;50.814;8.530;2023-05-02T16:14:09;14.80;69.40
30174;DHT22;16985;50.814;8.530;2023-05-02T16:16:49;14.70;68.90
30174;DHT22;16985;50.814;8.530;2023-05-02T16:19:15;14.60;69.40
30174;DHT22;16985;50.814;8.530;2023-05-02T16:21:41;14.50;69.70
30174;DHT22;16985;50.814;8.530;2023-05-02T16:24:08;14.40;70.30
30174;DHT22;16985;50.814;8.530;2023-05-02T16:26:34;14.20;70.30
30174;DHT22;16985;50.814;8.530;2023-05-02T16:29:00;14.10;70.70
30174;DHT22;16985;50.814;8.530;2023-05-02T16:31:26;14.00;71.20
30174;DHT22;16985;50.814;8.530;2023-05-02T16:33:52;13.90;71.60
30174;DHT22;16985;50.814;8.530;2023-05-02T16:36:18;13.70;71.60
30174;DHT22;16985;50.814;8.530;2023-05-02T16:38:44;13.60;71.90
30174;DHT22;16985;50.814;8.530;2023-05-02T16:41:10;13.40;72.20
30174;DHT22;16985;50.814;8.530;2023-05-02T16:43:36;13.30;72.50
30174;DHT22;16985;50.814;8.530;2023-05-02T16:46:04;13.30;72.80
30174;DHT22;16985;50.814;8.530;2023-05-02T16:48:30;13.30;72.80
30174;DHT22;16985;50.814;8.530;2023-05-02T16:51:11;13.10;72.50
30174;DHT22;16985;50.814;8.530;2023-05-02T16:53:37;13.10;72.50
30174;DHT22;16985;50.814;8.530;2023-05-02T16:56:03;13.10;72.30
30174;DHT22;16985;50.814;8.530;2023-05-02T16:58:29;13.00;72.30
30174;DHT22;16985;50.814;8.530;2023-05-02T17:00:58;12.90;72.50
30174;DHT22;16985;50.814;8.530;2023-05-02T17:03:24;12.90;72.20
30174;DHT22;16985;50.814;8.530;2023-05-02T17:05:50;12.80;72.00
30174;DHT22;16985;50.814;8.530;2023-05-02T17:08:15;12.80;72.00
30174;DHT22;16985;50.814;8.530;2023-05-02T17:10:41;12.80;71.80
30174;DHT22;16985;50.814;8.530;2023-05-02T17:13:07;12.80;71.90
30174;DHT22;16985;50.814;8.530;2023-05-02T17:15:36;12.80;72.00
30174;DHT22;16985;50.814;8.530;2023-05-02T17:18:04;12.90;72.10
30174;DHT22;16985;50.814;8.530;2023-05-02T17:20:30;12.90;72.30
30174;DHT22;16985;50.814;8.530;2023-05-02T17:22:56;12.90;72.00
30174;DHT22;16985;50.814;8.530;2023-05-02T17:25:22;12.90;72.30
30174;DHT22;16985;50.814;8.530;2023-05-02T17:29:46;12.80;73.10
30174;DHT22;16985;50.814;8.530;2023-05-02T17:32:12;12.80;73.00
30174;DHT22;16985;50.814;8.530;2023-05-02T17:34:40;12.80;72.40
30174;DHT22;16985;50.814;8.530;2023-05-02T17:37:07;12.60;72.50
30174;DHT22;16985;50.814;8.530;2023-05-02T17:39:33;12.50;72.70
30174;DHT22;16985;50.814;8.530;2023-05-02T17:41:59;12.30;73.10
30174;DHT22;16985;50.814;8.530;2023-05-02T17:44:25;12.20;73.30
30174;DHT22;16985;50.814;8.530;2023-05-02T17:47:06;12.10;73.60
30174;DHT22;16985;50.814;8.530;2023-05-02T17:49:33;12.00;74.10
30174;DHT22;16985;50.814;8.530;2023-05-02T17:51:59;12.00;74.40
30174;DHT22;16985;50.814;8.530;2023-05-02T17:54:25;12.00;74.40
30174;DHT22;16985;50.814;8.530;2023-05-02T17:56:51;12.00;74.60
30174;DHT22;16985;50.814;8.530;2023-05-02T17:59:17;11.90;74.60
30174;DHT22;16985;50.814;8.530;2023-05-02T18:01:44;11.80;74.70
30174;DHT22;16985;50.814;8.530;2023-05-02T18:04:09;11.70;74.80
30174;DHT22;16985;50.814;8.530;2023-05-02T18:06:39;11.60;75.40
30174;DHT22;16985;50.814;8.530;2023-05-02T18:09:19;11.50;75.50
30174;DHT22;16985;50.814;8.530;2023-05-02T18:11:45;11.60;75.80
30174;DHT22;16985;50.814;8.530;2023-05-02T18:14:26;11.50;76.00
30174;DHT22;16985;50.814;8.530;2023-05-02T18:16:52;11.40;76.00
30174;DHT22;16985;50.814;8.530;2023-05-02T18:19:17;11.40;76.10
30174;DHT22;16985;50.814;8.530;2023-05-02T18:21:43;11.40;76.30
30174;DHT22;16985;50.814;8.530;2023-05-02T18:24:09;11.30;76.80
30174;DHT22;16985;50.814;8.530;2023-05-02T18:26:35;11.30;76.90
30174;DHT22;16985;50.814;8.530;2023-05-02T18:29:01;11.30;76.90
30174;DHT22;16985;50.814;8.530;2023-05-02T18:31:27;11.20;77.20
30174;DHT22;16985;50.814;8.530;2023-05-02T18:33:53;11.20;77.50
30174;DHT22;16985;50.814;8.530;2023-05-02T18:36:28;11.00;77.60
30174;DHT22;16985;50.814;8.530;2023-05-02T18:38:54;11.00;78.00
30174;DHT22;16985;50.814;8.530;2023-05-02T18:41:20;11.00;78.00
30174;DHT22;16985;50.814;8.530;2023-05-02T18:43:46;10.90;78.30
30174;DHT22;16985;50.814;8.530;2023-05-02T18:46:12;10.90;78.20
30174;DHT22;16985;50.814;8.530;2023-05-02T18:48:38;10.90;78.20
30174;DHT22;16985;50.814;8.530;2023-05-02T18:51:04;10.90;78.40
30174;DHT22;16985;50.814;8.530;2023-05-02T18:53:30;10.80;79.30
30174;DHT22;16985;50.814;8.530;2023-05-02T18:55:56;10.80;78.60
30174;DHT22;16985;50.814;8.530;2023-05-02T18:58:25;10.70;78.70
30174;DHT22;16985;50.814;8.530;2023-05-02T19:01:14;10.70;78.90
30174;DHT22;16985;50.814;8.530;2023-05-02T19:03:41;10.70;79.00
30174;DHT22;16985;50.814;8.530;2023-05-02T19:06:08;10.60;79.30
30174;DHT22;16985;50.814;8.530;2023-05-02T19:08:34;10.50;79.20
30174;DHT22;16985;50.814;8.530;2023-05-02T19:11:00;10.40;79.20
30174;DHT22;16985;50.814;8.530;2023-05-02T19:13:26;10.40;79.50
30174;DHT22;16985;50.814;8.530;2023-05-02T19:15:52;10.40;79.40
30174;DHT22;16985;50.814;8.530;2023-05-02T19:18:18;10.30;79.50
30174;DHT22;16985;50.814;8.530;2023-05-02T19:21:06;10.30;79.60
30174;DHT22;16985;50.814;8.530;2023-05-02T19:23:37;10.30;79.50
30174;DHT22;16985;50.814;8.530;2023-05-02T19:26:12;10.20;80.00
30174;DHT22;16985;50.814;8.530;2023-05-02T19:28:39;10.20;80.30
30174;DHT22;16985;50.814;8.530;2023-05-02T19:31:18;10.10;80.50
30174;DHT22;16985;50.814;8.530;2023-05-02T19:33:45;10.00;80.90
30174;DHT22;16985;50.814;8.530;2023-05-02T19:36:18;9.90;81.10
30174;DHT22;16985;50.814;8.530;2023-05-02T19:38:51;9.90;81.30
30174;DHT22;16985;50.814;8.530;2023-05-02T19:41:19;9.90;81.30
30174;DHT22;16985;50.814;8.530;2023-05-02T19:43:45;9.80;81.10
30174;DHT22;16985;50.814;8.530;2023-05-02T19:46:25;9.80;81.20
30174;DHT22;16985;50.814;8.530;2023-05-02T19:48:51;9.80;81.20
30174;DHT22;16985;50.814;8.530;2023-05-02T19:51:18;9.70;81.40
30174;DHT22;16985;50.814;8.530;2023-05-02T19:53:49;9.60;81.80
30174;DHT22;16985;50.814;8.530;2023-05-02T19:56:15;9.50;82.40
30174;DHT22;16985;50.814;8.530;2023-05-02T19:58:41;9.40;82.90
30174;DHT22;16985;50.814;8.530;2023-05-02T20:01:07;9.30;83.10
30174;DHT22;16985;50.814;8.530;2023-05-02T20:03:33;9.20;83.40
30174;DHT22;16985;50.814;8.530;2023-05-02T20:05:59;9.20;83.30
30174;DHT22;16985;50.814;8.530;2023-05-02T20:08:25;9.10;83.50
30174;DHT22;16985;50.814;8.530;2023-05-02T20:11:02;9.00;83.80
30174;DHT22;16985;50.814;8.530;2023-05-02T20:13:28;9.00;84.10
30174;DHT22;16985;50.814;8.530;2023-05-02T20:15:54;9.00;84.30
30174;DHT22;16985;50.814;8.530;2023-05-02T20:18:20;8.90;84.50
30174;DHT22;16985;50.814;8.530;2023-05-02T20:20:45;8.90;84.70
30174;DHT22;16985;50.814;8.530;2023-05-02T20:23:12;8.90;84.60
30174;DHT22;16985;50.814;8.530;2023-05-02T20:25:38;8.80;84.50
30174;DHT22;16985;50.814;8.530;2023-05-02T20:28:03;8.80;84.40
30174;DHT22;16985;50.814;8.530;2023-05-02T20:30:30;8.70;84.30
30174;DHT22;16985;50.814;8.530;2023-05-02T20:32:56;8.70;84.50
30174;DHT22;16985;50.814;8.530;2023-05-02T20:35:22;8.60;84.50
30174;DHT22;16985;50.814;8.530;2023-05-02T20:37:47;8.50;84.60
30174;DHT22;16985;50.814;8.530;2023-05-02T20:40:14;8.50;85.00
30174;DHT22;16985;50.814;8.530;2023-05-02T20:42:40;8.40;85.30
30174;DHT22;16985;50.814;8.530;2023-05-02T20:45:09;8.30;85.40
30174;DHT22;16985;50.814;8.530;2023-05-02T20:47:40;8.30;85.50
30174;DHT22;16985;50.814;8.530;2023-05-02T20:50:08;8.30;85.90
30174;DHT22;16985;50.814;8.530;2023-05-02T20:52:36;8.20;85.80
30174;DHT22;16985;50.814;8.530;2023-05-02T20:55:03;8.20;86.10
30174;DHT22;16985;50.814;8.530;2023-05-02T20:57:29;8.20;86.40
30174;DHT22;16985;50.814;8.530;2023-05-02T20:59:55;8.10;86.70
30174;DHT22;16985;50.814;8.530;2023-05-02T21:02:24;8.00;86.70
30174;DHT22;16985;50.814;8.530;2023-05-02T21:04:52;8.00;87.20
30174;DHT22;16985;50.814;8.530;2023-05-02T21:07:18;8.00;87.70
30174;DHT22;16985;50.814;8.530;2023-05-02T21:09:44;8.00;87.30
30174;DHT22;16985;50.814;8.530;2023-05-02T21:12:10;7.90;87.00
30174;DHT22;16985;50.814;8.530;2023-05-02T21:14:35;7.80;87.60
30174;DHT22;16985;50.814;8.530;2023-05-02T21:17:01;7.80;87.70
30174;DHT22;16985;50.814;8.530;2023-05-02T21:19:27;7.80;87.80
30174;DHT22;16985;50.814;8.530;2023-05-02T21:21:57;7.70;88.10
30174;DHT22;16985;50.814;8.530;2023-05-02T21:24:23;7.70;87.90
30174;DHT22;16985;50.814;8.530;2023-05-02T21:26:49;7.70;88.00
30174;DHT22;16985;50.814;8.530;2023-05-02T21:29:15;7.70;88.00
30174;DHT22;16985;50.814;8.530;2023-05-02T21:31:41;7.60;88.20
30174;DHT22;16985;50.814;8.530;2023-05-02T21:34:07;7.50;88.80
30174;DHT22;16985;50.814;8.530;2023-05-02T21:36:32;7.50;88.70
30174;DHT22;16985;50.814;8.530;2023-05-02T21:38:58;7.50;88.90
30174;DHT22;16985;50.814;8.530;2023-05-02T21:41:24;7.40;89.00
30174;DHT22;16985;50.814;8.530;2023-05-02T21:43:50;7.40;88.90
30174;DHT22;16985;50.814;8.530;2023-05-02T21:46:16;7.40;89.00
30174;DHT22;16985;50.814;8.530;2023-05-02T21:48:41;7.30;89.30
30174;DHT22;16985;50.814;8.530;2023-05-02T21:51:08;7.30;89.20
30174;DHT22;16985;50.814;8.530;2023-05-02T21:53:35;7.20;89.40
30174;DHT22;16985;50.814;8.530;2023-05-02T21:56:00;7.20;89.40
30174;DHT22;16985;50.814;8.530;2023-05-02T21:58:27;7.10;89.40
30174;DHT22;16985;50.814;8.530;2023-05-02T22:00:53;7.20;88.80
30174;DHT22;16985;50.814;8.530;2023-05-02T22:03:19;7.10;89.60
30174;DHT22;16985;50.814;8.530;2023-05-02T22:05:47;7.00;88.80
30174;DHT22;16985;50.814;8.530;2023-05-02T22:08:14;7.00;89.30
30174;DHT22;16985;50.814;8.530;2023-05-02T22:10:42;6.80;89.30
30174;DHT22;16985;50.814;8.530;2023-05-02T22:13:12;6.80;89.90
30174;DHT22;16985;50.814;8.530;2023-05-02T22:15:45;6.70;90.20
30174;DHT22;16985;50.814;8.530;2023-05-02T22:18:12;6.70;90.40
30174;DHT22;16985;50.814;8.530;2023-05-02T22:20:42;6.60;90.40
30174;DHT22;16985;50.814;8.530;2023-05-02T22:23:10;6.60;90.60
30174;DHT22;16985;50.814;8.530;2023-05-02T22:25:42;6.60;90.90
30174;DHT22;16985;50.814;8.530;2023-05-02T22:28:13;6.50;91.10
30174;DHT22;16985;50.814;8.530;2023-05-02T22:30:48;6.50;91.10
30174;DHT22;16985;50.814;8.530;2023-05-02T22:33:14;6.40;91.00
30174;DHT22;16985;50.814;8.530;2023-05-02T22:35:40;6.40;91.10
30174;DHT22;16985;50.814;8.530;2023-05-02T22:38:06;6.40;91.10
30174;DHT22;16985;50.814;8.530;2023-05-02T22:40:35;6.40;91.00
30174;DHT22;16985;50.814;8.530;2023-05-02T22:43:01;6.40;91.00
30174;DHT22;16985;50.814;8.530;2023-05-02T22:45:27;6.40;90.80
30174;DHT22;16985;50.814;8.530;2023-05-02T22:47:52;6.40;90.60
30174;DHT22;16985;50.814;8.530;2023-05-02T22:50:18;6.40;90.40
30174;DHT22;16985;50.814;8.530;2023-05-02T22:52:47;6.30;90.50
30174;DHT22;16985;50.814;8.530;2023-05-02T22:55:14;6.20;90.80
30174;DHT22;16985;50.814;8.530;2023-05-02T22:57:45;6.10;91.10
30174;DHT22;16985;50.814;8.530;2023-05-02T23:00:12;6.00;91.20
30174;DHT22;16985;50.814;8.530;2023-05-02T23:02:38;5.90;91.20
30174;DHT22;16985;50.814;8.530;2023-05-02T23:05:06;5.90;91.30
30174;DHT22;16985;50.814;8.530;2023-05-02T23:07:35;5.80;91.70
30174;DHT22;16985;50.814;8.530;2023-05-02T23:10:04;5.70;91.80
30174;DHT22;16985;50.814;8.530;2023-05-02T23:12:30;5.70;92.00
30174;DHT22;16985;50.814;8.530;2023-05-02T23:14:56;5.70;92.20
30174;DHT22;16985;50.814;8.530;2023-05-02T23:17:22;5.60;92.50
30174;DHT22;16985;50.814;8.530;2023-05-02T23:19:48;5.60;92.40
30174;DHT22;16985;50.814;8.530;2023-05-02T23:22:17;5.60;92.40
30174;DHT22;16985;50.814;8.530;2023-05-02T23:24:44;5.60;92.40